VKG469 LGRP-ESMS
Flight info
| Callsign | VKG469 |
|---|---|
| Flight time | N/A |
| Altitude | 34000 |
| Route | VANES UM601 ADESO UN133 PEREN UL863 EVIVI DCT OKANA DCT ESIRI DCT DONIV DCT PARAK/N0454F360 DCT DODAR DCT PATAK DCT UPIVA DCT BILNA DCT REGLI L617 EPOPA DCT NUDRO L617 KOLOB/N0419F280 L617 ROE |
| Aircraft | A321/M-SDE2E3FGHIJ1RWXYZ/LB2 |
Departure
| Time | N/A |
|---|---|
| Airport | Rhodes International Airport "Diagoras" (LGRP) |
Arrival
| Time | 2026-04-29 20:25 |
|---|---|
| Airport | Malmö Sturup Airport (ESMS) |
| Time | Latitude | Longitude | Altitude | Speed | Heading |
|---|---|---|---|---|---|
| 2026-04-29 18:51 | 46.55986 | 19.88326 | 34566 ft | 401 kts | 333° |
| 2026-04-29 18:51 | 46.58610 | 19.86915 | 34781 ft | 402 kts | 333° |
| 2026-04-29 18:51 | 46.61242 | 19.85502 | 35005 ft | 402 kts | 333° |
| 2026-04-29 18:51 | 46.63876 | 19.84088 | 35211 ft | 403 kts | 333° |
| 2026-04-29 18:52 | 46.66512 | 19.82672 | 35421 ft | 404 kts | 333° |
| 2026-04-29 18:52 | 46.69122 | 19.81267 | 35582 ft | 405 kts | 334° |
| 2026-04-29 18:52 | 46.71774 | 19.79838 | 35789 ft | 406 kts | 334° |
| 2026-04-29 18:52 | 46.74432 | 19.78405 | 35950 ft | 408 kts | 334° |
| 2026-04-29 18:53 | 46.77104 | 19.76962 | 36126 ft | 409 kts | 334° |
| 2026-04-29 18:53 | 46.79772 | 19.75516 | 36212 ft | 409 kts | 334° |
| 2026-04-29 18:53 | 46.85123 | 19.72616 | 36220 ft | 409 kts | 334° |
| 2026-04-29 18:54 | 46.90463 | 19.69705 | 36220 ft | 409 kts | 334° |
| 2026-04-29 18:54 | 46.95804 | 19.66794 | 36217 ft | 410 kts | 334° |
| 2026-04-29 18:55 | 47.01118 | 19.63900 | 36192 ft | 410 kts | 334° |
| 2026-04-29 18:55 | 47.06478 | 19.60977 | 36202 ft | 411 kts | 335° |
| 2026-04-29 18:56 | 47.11847 | 19.58039 | 36209 ft | 411 kts | 335° |
| 2026-04-29 18:56 | 47.17218 | 19.55082 | 36221 ft | 412 kts | 335° |
| 2026-04-29 18:57 | 47.22570 | 19.52154 | 36230 ft | 413 kts | 336° |
| 2026-04-29 18:57 | 47.28049 | 19.49558 | 36236 ft | 414 kts | 338° |
| 2026-04-29 18:58 | 47.33586 | 19.47128 | 36242 ft | 415 kts | 338° |
| 2026-04-29 18:58 | 47.39077 | 19.44667 | 36241 ft | 414 kts | 339° |
| 2026-04-29 18:59 | 47.44592 | 19.42116 | 36255 ft | 415 kts | 338° |
| 2026-04-29 18:59 | 47.50102 | 19.39543 | 36247 ft | 416 kts | 338° |
| 2026-04-29 19:00 | 47.55628 | 19.36973 | 36243 ft | 416 kts | 339° |
| 2026-04-29 19:00 | 47.61127 | 19.34426 | 36245 ft | 416 kts | 339° |
| 2026-04-29 19:01 | 47.66670 | 19.31851 | 36272 ft | 416 kts | 339° |
| 2026-04-29 19:01 | 47.72205 | 19.29246 | 36261 ft | 417 kts | 338° |
| 2026-04-29 19:02 | 47.76798 | 19.27003 | 36247 ft | 417 kts | 339° |
| 2026-04-29 19:02 | 47.83214 | 19.23832 | 36252 ft | 418 kts | 339° |
| 2026-04-29 19:03 | 47.88748 | 19.21102 | 36249 ft | 418 kts | 339° |
| 2026-04-29 19:03 | 47.94288 | 19.18387 | 36277 ft | 419 kts | 339° |
| 2026-04-29 19:04 | 47.99801 | 19.15685 | 36282 ft | 419 kts | 339° |
| 2026-04-29 19:04 | 48.05342 | 19.12939 | 36279 ft | 418 kts | 339° |
| 2026-04-29 19:05 | 48.10871 | 19.10188 | 36283 ft | 418 kts | 339° |
| 2026-04-29 19:05 | 48.16402 | 19.07443 | 36315 ft | 418 kts | 339° |
| 2026-04-29 19:06 | 48.21930 | 19.04696 | 36303 ft | 418 kts | 339° |
| 2026-04-29 19:07 | 48.30197 | 19.00562 | 36307 ft | 417 kts | 339° |
| 2026-04-29 19:07 | 48.35675 | 18.97824 | 36306 ft | 417 kts | 339° |
| 2026-04-29 19:08 | 48.41178 | 18.95057 | 36322 ft | 417 kts | 339° |
| 2026-04-29 19:08 | 48.46701 | 18.92284 | 36309 ft | 418 kts | 339° |
| 2026-04-29 19:09 | 48.52224 | 18.89505 | 36307 ft | 418 kts | 340° |
| 2026-04-29 19:09 | 48.57756 | 18.86708 | 36310 ft | 419 kts | 340° |
| 2026-04-29 19:10 | 48.63289 | 18.83903 | 36312 ft | 419 kts | 340° |
| 2026-04-29 19:10 | 48.68822 | 18.81104 | 36340 ft | 419 kts | 340° |
| 2026-04-29 19:11 | 48.74330 | 18.78303 | 36339 ft | 420 kts | 340° |
| 2026-04-29 19:11 | 48.79881 | 18.75476 | 36343 ft | 420 kts | 340° |
| 2026-04-29 19:12 | 48.85434 | 18.72635 | 36346 ft | 420 kts | 340° |
| 2026-04-29 19:12 | 48.90978 | 18.69791 | 36371 ft | 420 kts | 340° |
| 2026-04-29 19:13 | 48.96515 | 18.66948 | 36369 ft | 419 kts | 340° |
| 2026-04-29 19:13 | 49.02037 | 18.64112 | 36374 ft | 418 kts | 340° |
| 2026-04-29 19:14 | 49.07524 | 18.61291 | 36374 ft | 418 kts | 340° |
| 2026-04-29 19:14 | 49.13028 | 18.58440 | 36383 ft | 418 kts | 340° |
| 2026-04-29 19:15 | 49.18546 | 18.55574 | 36382 ft | 418 kts | 340° |
| 2026-04-29 19:15 | 49.24060 | 18.52708 | 36368 ft | 419 kts | 340° |
| 2026-04-29 19:16 | 49.29561 | 18.49848 | 36350 ft | 419 kts | 341° |
| 2026-04-29 19:16 | 49.35092 | 18.46970 | 36356 ft | 419 kts | 341° |
| 2026-04-29 19:17 | 49.40566 | 18.43892 | 36388 ft | 419 kts | 336° |
| 2026-04-29 19:17 | 49.45884 | 18.40144 | 36387 ft | 419 kts | 336° |
| 2026-04-29 19:18 | 49.51164 | 18.36444 | 36409 ft | 419 kts | 336° |
| 2026-04-29 19:18 | 49.56474 | 18.32712 | 36415 ft | 419 kts | 336° |
| 2026-04-29 19:19 | 49.61784 | 18.28973 | 36413 ft | 419 kts | 336° |
| 2026-04-29 19:19 | 49.67086 | 18.25218 | 36397 ft | 419 kts | 336° |
| 2026-04-29 19:20 | 49.72347 | 18.21489 | 36401 ft | 418 kts | 336° |
| 2026-04-29 19:20 | 49.77630 | 18.17739 | 36405 ft | 417 kts | 336° |
| 2026-04-29 19:21 | 49.82915 | 18.13983 | 36410 ft | 417 kts | 336° |
| 2026-04-29 19:21 | 49.88200 | 18.10214 | 36409 ft | 417 kts | 336° |
| 2026-04-29 19:22 | 49.93509 | 18.06706 | 36419 ft | 417 kts | 340° |
| 2026-04-29 19:22 | 49.98970 | 18.03573 | 36416 ft | 417 kts | 341° |
| 2026-04-29 19:23 | 50.04443 | 18.00487 | 36416 ft | 418 kts | 341° |
| 2026-04-29 19:23 | 50.09900 | 17.97298 | 36421 ft | 418 kts | 340° |
| 2026-04-29 19:24 | 50.15343 | 17.94052 | 36433 ft | 419 kts | 340° |
| 2026-04-29 19:24 | 50.20753 | 17.90821 | 36439 ft | 419 kts | 341° |
| 2026-04-29 19:25 | 50.26207 | 17.87571 | 36445 ft | 419 kts | 341° |
| 2026-04-29 19:25 | 50.31676 | 17.84302 | 36438 ft | 419 kts | 341° |
| 2026-04-29 19:26 | 50.37091 | 17.81059 | 36414 ft | 419 kts | 341° |
| 2026-04-29 19:26 | 50.42545 | 17.77789 | 36426 ft | 419 kts | 341° |
| 2026-04-29 19:27 | 50.48000 | 17.74510 | 36443 ft | 418 kts | 341° |
| 2026-04-29 19:27 | 50.53408 | 17.71244 | 36445 ft | 418 kts | 341° |
| 2026-04-29 19:28 | 50.58845 | 17.67945 | 36443 ft | 418 kts | 341° |
| 2026-04-29 19:28 | 50.64275 | 17.64653 | 36444 ft | 418 kts | 341° |
| 2026-04-29 19:29 | 50.69728 | 17.61346 | 36447 ft | 418 kts | 341° |
| 2026-04-29 19:29 | 50.75132 | 17.58052 | 36450 ft | 418 kts | 342° |
| 2026-04-29 19:30 | 50.80558 | 17.54724 | 36441 ft | 417 kts | 342° |
| 2026-04-29 19:30 | 50.85067 | 17.51966 | 36453 ft | 417 kts | 342° |
| 2026-04-29 19:31 | 50.90460 | 17.48673 | 36456 ft | 416 kts | 342° |
| 2026-04-29 19:31 | 50.95866 | 17.45356 | 36441 ft | 416 kts | 342° |
| 2026-04-29 19:32 | 51.01229 | 17.42035 | 36451 ft | 415 kts | 342° |
| 2026-04-29 19:32 | 51.06627 | 17.38693 | 36452 ft | 415 kts | 342° |
| 2026-04-29 19:33 | 51.12026 | 17.35351 | 36454 ft | 415 kts | 342° |
| 2026-04-29 19:33 | 51.17386 | 17.32023 | 36426 ft | 415 kts | 342° |
| 2026-04-29 19:34 | 51.22791 | 17.28728 | 36440 ft | 415 kts | 343° |
| 2026-04-29 19:34 | 51.28194 | 17.25468 | 36451 ft | 415 kts | 343° |
| 2026-04-29 19:35 | 51.33555 | 17.22216 | 36458 ft | 415 kts | 343° |
| 2026-04-29 19:35 | 51.38959 | 17.18911 | 36456 ft | 415 kts | 343° |
| 2026-04-29 19:36 | 51.44356 | 17.15591 | 36472 ft | 415 kts | 343° |
| 2026-04-29 19:36 | 51.49742 | 17.12271 | 36472 ft | 414 kts | 343° |
| 2026-04-29 19:37 | 51.55139 | 17.08948 | 36434 ft | 415 kts | 343° |
| 2026-04-29 19:37 | 51.60486 | 17.05651 | 36458 ft | 414 kts | 343° |
| 2026-04-29 19:38 | 51.65851 | 17.02324 | 36476 ft | 413 kts | 343° |
| 2026-04-29 19:38 | 51.71211 | 16.98986 | 36476 ft | 412 kts | 343° |
| 2026-04-29 19:39 | 51.76566 | 16.95655 | 36479 ft | 412 kts | 343° |
| 2026-04-29 19:39 | 51.81916 | 16.92325 | 36479 ft | 411 kts | 343° |
| 2026-04-29 19:40 | 51.87225 | 16.89016 | 36487 ft | 411 kts | 343° |
| 2026-04-29 19:40 | 51.92563 | 16.85669 | 36482 ft | 410 kts | 343° |
| 2026-04-29 19:41 | 51.97866 | 16.82331 | 36445 ft | 410 kts | 344° |
| 2026-04-29 19:41 | 52.03195 | 16.78968 | 36466 ft | 410 kts | 344° |
| 2026-04-29 19:42 | 52.08487 | 16.75621 | 36473 ft | 409 kts | 344° |
| 2026-04-29 19:42 | 52.13810 | 16.72240 | 36476 ft | 409 kts | 344° |
| 2026-04-29 19:43 | 52.19117 | 16.68909 | 36479 ft | 408 kts | 345° |
| 2026-04-29 19:43 | 52.24397 | 16.65644 | 36477 ft | 408 kts | 345° |
| 2026-04-29 19:44 | 52.29719 | 16.62329 | 36476 ft | 408 kts | 344° |
| 2026-04-29 19:44 | 52.34996 | 16.59017 | 36476 ft | 408 kts | 344° |
| 2026-04-29 19:45 | 52.40302 | 16.55682 | 36445 ft | 408 kts | 345° |
| 2026-04-29 19:45 | 52.45617 | 16.52331 | 36458 ft | 408 kts | 345° |
| 2026-04-29 19:46 | 52.50915 | 16.48978 | 36472 ft | 408 kts | 345° |
| 2026-04-29 19:46 | 52.56180 | 16.45645 | 36475 ft | 407 kts | 345° |
| 2026-04-29 19:47 | 52.61481 | 16.42276 | 36482 ft | 407 kts | 345° |
| 2026-04-29 19:47 | 52.66738 | 16.38923 | 36487 ft | 406 kts | 345° |
| 2026-04-29 19:48 | 52.72023 | 16.35535 | 36486 ft | 406 kts | 345° |
| 2026-04-29 19:48 | 52.77270 | 16.32177 | 36487 ft | 406 kts | 345° |
| 2026-04-29 19:49 | 52.82544 | 16.28788 | 36468 ft | 405 kts | 345° |
| 2026-04-29 19:49 | 52.87773 | 16.25411 | 36479 ft | 405 kts | 346° |
| 2026-04-29 19:50 | 52.93015 | 16.22035 | 36503 ft | 403 kts | 346° |
| 2026-04-29 19:50 | 52.98256 | 16.18650 | 36506 ft | 402 kts | 346° |
| 2026-04-29 19:51 | 53.03438 | 16.15277 | 36497 ft | 402 kts | 346° |
| 2026-04-29 19:51 | 53.08647 | 16.11887 | 36500 ft | 401 kts | 346° |
| 2026-04-29 19:52 | 53.13857 | 16.08488 | 36491 ft | 401 kts | 346° |
| 2026-04-29 19:52 | 53.19029 | 16.05105 | 36510 ft | 401 kts | 346° |
| 2026-04-29 19:53 | 53.24228 | 16.01697 | 36490 ft | 400 kts | 346° |
| 2026-04-29 19:53 | 53.29395 | 15.98295 | 36504 ft | 399 kts | 346° |
| 2026-04-29 19:54 | 53.37102 | 15.93201 | 36503 ft | 397 kts | 346° |
| 2026-04-29 19:54 | 53.42248 | 15.89788 | 36503 ft | 397 kts | 346° |
| 2026-04-29 19:55 | 53.47393 | 15.86376 | 36505 ft | 396 kts | 346° |
| 2026-04-29 19:55 | 53.52484 | 15.83003 | 36507 ft | 395 kts | 346° |
| 2026-04-29 19:56 | 53.57606 | 15.79597 | 36511 ft | 395 kts | 346° |
| 2026-04-29 19:56 | 53.62718 | 15.76176 | 36511 ft | 394 kts | 346° |
| 2026-04-29 19:57 | 53.66960 | 15.73330 | 36468 ft | 394 kts | 346° |
| 2026-04-29 19:57 | 53.72625 | 15.68098 | 36475 ft | 410 kts | 332° |
| 2026-04-29 19:58 | 53.77140 | 15.62159 | 36489 ft | 410 kts | 331° |
| 2026-04-29 19:58 | 53.81602 | 15.56229 | 36497 ft | 409 kts | 331° |
| 2026-04-29 19:59 | 53.86090 | 15.50251 | 36505 ft | 409 kts | 331° |
| 2026-04-29 19:59 | 53.90572 | 15.44276 | 36496 ft | 409 kts | 331° |
| 2026-04-29 20:00 | 53.95016 | 15.38346 | 36493 ft | 408 kts | 331° |
| 2026-04-29 20:00 | 53.99500 | 15.32367 | 36478 ft | 410 kts | 331° |
| 2026-04-29 20:01 | 54.01746 | 15.29363 | 36171 ft | 412 kts | 331° |
| 2026-04-29 20:01 | 54.04035 | 15.26304 | 35096 ft | 422 kts | 332° |
| 2026-04-29 20:01 | 54.06330 | 15.23227 | 34215 ft | 426 kts | 333° |
| 2026-04-29 20:01 | 54.08646 | 15.20095 | 33271 ft | 422 kts | 332° |
| 2026-04-29 20:02 | 54.10938 | 15.16977 | 32232 ft | 421 kts | 332° |
| 2026-04-29 20:02 | 54.13230 | 15.13868 | 31636 ft | 418 kts | 332° |
| 2026-04-29 20:02 | 54.15498 | 15.10792 | 31132 ft | 413 kts | 332° |
| 2026-04-29 20:02 | 54.16984 | 15.08776 | 30796 ft | 410 kts | 332° |
| 2026-04-29 20:03 | 54.19952 | 15.04742 | 30072 ft | 404 kts | 332° |
| 2026-04-29 20:03 | 54.22134 | 15.01765 | 29593 ft | 397 kts | 332° |
| 2026-04-29 20:03 | 54.24252 | 14.98875 | 29102 ft | 391 kts | 332° |
| 2026-04-29 20:03 | 54.26364 | 14.95995 | 28630 ft | 385 kts | 332° |
| 2026-04-29 20:04 | 54.28447 | 14.93159 | 28169 ft | 380 kts | 332° |
| 2026-04-29 20:04 | 54.30505 | 14.90356 | 27710 ft | 374 kts | 332° |
| 2026-04-29 20:04 | 54.32531 | 14.87590 | 27278 ft | 369 kts | 332° |
| 2026-04-29 20:04 | 54.34496 | 14.84897 | 26849 ft | 364 kts | 331° |
| 2026-04-29 20:05 | 54.36467 | 14.82191 | 26431 ft | 359 kts | 331° |
| 2026-04-29 20:05 | 54.38402 | 14.79529 | 26013 ft | 354 kts | 331° |
| 2026-04-29 20:05 | 54.40310 | 14.76899 | 25626 ft | 349 kts | 331° |
| 2026-04-29 20:05 | 54.42187 | 14.74311 | 25238 ft | 344 kts | 331° |
| 2026-04-29 20:06 | 54.44045 | 14.71750 | 24859 ft | 340 kts | 331° |
| 2026-04-29 20:06 | 54.45878 | 14.69226 | 24472 ft | 336 kts | 330° |
| 2026-04-29 20:06 | 54.47692 | 14.66727 | 24083 ft | 332 kts | 330° |
| 2026-04-29 20:06 | 54.49486 | 14.64253 | 23655 ft | 328 kts | 330° |
| 2026-04-29 20:07 | 54.51254 | 14.61808 | 23228 ft | 323 kts | 330° |
| 2026-04-29 20:07 | 54.52967 | 14.59435 | 22900 ft | 318 kts | 330° |
| 2026-04-29 20:07 | 54.54711 | 14.57017 | 22525 ft | 317 kts | 330° |
| 2026-04-29 20:07 | 54.56401 | 14.54670 | 22156 ft | 316 kts | 330° |
| 2026-04-29 20:08 | 54.58105 | 14.52298 | 21780 ft | 314 kts | 330° |
| 2026-04-29 20:08 | 54.59251 | 14.50700 | 21523 ft | 313 kts | 330° |
| 2026-04-29 20:08 | 54.61495 | 14.47570 | 21025 ft | 311 kts | 330° |
| 2026-04-29 20:08 | 54.63177 | 14.45228 | 20631 ft | 310 kts | 330° |
| 2026-04-29 20:09 | 54.64856 | 14.42889 | 20258 ft | 309 kts | 329° |
| 2026-04-29 20:09 | 54.66530 | 14.40555 | 19878 ft | 307 kts | 329° |
| 2026-04-29 20:09 | 54.68189 | 14.38235 | 19505 ft | 306 kts | 329° |
| 2026-04-29 20:09 | 54.69817 | 14.35951 | 19141 ft | 304 kts | 329° |
| 2026-04-29 20:10 | 54.71463 | 14.33642 | 18763 ft | 303 kts | 329° |
| 2026-04-29 20:10 | 54.73103 | 14.31340 | 18354 ft | 302 kts | 329° |
| 2026-04-29 20:10 | 54.74729 | 14.29053 | 17983 ft | 300 kts | 328° |
| 2026-04-29 20:10 | 54.76342 | 14.26784 | 17620 ft | 298 kts | 328° |
| 2026-04-29 20:11 | 54.77931 | 14.24550 | 17275 ft | 297 kts | 328° |
| 2026-04-29 20:11 | 54.79532 | 14.22293 | 16923 ft | 295 kts | 328° |
| 2026-04-29 20:11 | 54.81120 | 14.20045 | 16559 ft | 294 kts | 328° |
| 2026-04-29 20:11 | 54.82709 | 14.17798 | 16213 ft | 292 kts | 328° |
| 2026-04-29 20:12 | 54.84284 | 14.15572 | 15863 ft | 291 kts | 328° |
| 2026-04-29 20:12 | 54.85849 | 14.13361 | 15512 ft | 289 kts | 328° |
| 2026-04-29 20:12 | 54.87404 | 14.11157 | 15162 ft | 288 kts | 328° |
| 2026-04-29 20:12 | 54.88937 | 14.08978 | 14821 ft | 287 kts | 327° |
| 2026-04-29 20:13 | 54.90480 | 14.06775 | 14477 ft | 286 kts | 327° |
| 2026-04-29 20:13 | 54.91500 | 14.05318 | 14238 ft | 285 kts | 327° |
| 2026-04-29 20:13 | 54.93030 | 14.03138 | 13860 ft | 283 kts | 327° |
| 2026-04-29 20:13 | 54.94553 | 14.00968 | 13513 ft | 282 kts | 327° |
| 2026-04-29 20:14 | 54.96069 | 13.98805 | 13166 ft | 281 kts | 327° |
| 2026-04-29 20:14 | 54.97577 | 13.96652 | 12823 ft | 280 kts | 327° |
| 2026-04-29 20:14 | 54.99567 | 13.93806 | 12346 ft | 278 kts | 327° |
| 2026-04-29 20:14 | 55.00560 | 13.92387 | 12115 ft | 277 kts | 326° |
| 2026-04-29 20:15 | 55.02046 | 13.90264 | 11767 ft | 276 kts | 326° |
| 2026-04-29 20:15 | 55.03528 | 13.88145 | 11418 ft | 275 kts | 326° |
| 2026-04-29 20:15 | 55.05005 | 13.86026 | 11065 ft | 274 kts | 326° |
| 2026-04-29 20:15 | 55.06477 | 13.83910 | 10728 ft | 273 kts | 326° |
| 2026-04-29 20:16 | 55.07938 | 13.81811 | 10650 ft | 273 kts | 326° |
| 2026-04-29 20:16 | 55.09407 | 13.79702 | 10530 ft | 274 kts | 325° |
| 2026-04-29 20:16 | 55.10890 | 13.77569 | 10364 ft | 276 kts | 325° |
| 2026-04-29 20:16 | 55.12387 | 13.75414 | 9847 ft | 278 kts | 324° |
| 2026-04-29 20:17 | 55.13860 | 13.73290 | 9381 ft | 279 kts | 324° |
| 2026-04-29 20:17 | 55.15348 | 13.71141 | 9051 ft | 274 kts | 324° |
| 2026-04-29 20:17 | 55.16817 | 13.69010 | 8673 ft | 272 kts | 324° |
| 2026-04-29 20:17 | 55.18280 | 13.66892 | 8239 ft | 272 kts | 324° |
| 2026-04-29 20:18 | 55.19728 | 13.64798 | 7721 ft | 269 kts | 323° |
| 2026-04-29 20:18 | 55.21149 | 13.62735 | 7160 ft | 267 kts | 323° |
| 2026-04-29 20:18 | 55.22575 | 13.60660 | 6570 ft | 265 kts | 323° |
| 2026-04-29 20:18 | 55.23993 | 13.58596 | 5991 ft | 265 kts | 322° |
| 2026-04-29 20:19 | 55.25413 | 13.56533 | 5603 ft | 263 kts | 322° |
| 2026-04-29 20:19 | 55.26806 | 13.54500 | 4937 ft | 259 kts | 322° |
| 2026-04-29 20:19 | 55.28189 | 13.52480 | 4193 ft | 256 kts | 322° |
| 2026-04-29 20:19 | 55.29512 | 13.50550 | 3994 ft | 244 kts | 322° |
| 2026-04-29 20:20 | 55.30782 | 13.48693 | 3920 ft | 231 kts | 322° |
| 2026-04-29 20:20 | 55.31995 | 13.46920 | 3829 ft | 221 kts | 322° |
| 2026-04-29 20:20 | 55.33148 | 13.45234 | 3745 ft | 209 kts | 322° |
| 2026-04-29 20:20 | 55.34240 | 13.43632 | 3653 ft | 202 kts | 322° |
| 2026-04-29 20:21 | 55.35326 | 13.42077 | 3557 ft | 200 kts | 327° |
| 2026-04-29 20:21 | 55.36581 | 13.41112 | 3413 ft | 194 kts | 348° |
| 2026-04-29 20:21 | 55.37897 | 13.40824 | 3141 ft | 186 kts | 354° |
| 2026-04-29 20:21 | 55.39155 | 13.40576 | 2852 ft | 178 kts | 353° |
| 2026-04-29 20:22 | 55.40355 | 13.40332 | 2595 ft | 170 kts | 353° |
| 2026-04-29 20:22 | 55.41477 | 13.40099 | 2410 ft | 158 kts | 353° |
| 2026-04-29 20:22 | 55.42535 | 13.39882 | 2191 ft | 148 kts | 353° |
| 2026-04-29 20:22 | 55.43538 | 13.39678 | 1994 ft | 143 kts | 353° |
| 2026-04-29 20:23 | 55.44513 | 13.39478 | 1816 ft | 139 kts | 353° |
| 2026-04-29 20:23 | 55.45458 | 13.39284 | 1629 ft | 135 kts | 353° |
| 2026-04-29 20:23 | 55.46390 | 13.39093 | 1448 ft | 134 kts | 353° |
| 2026-04-29 20:23 | 55.47315 | 13.38903 | 1272 ft | 133 kts | 352° |
| 2026-04-29 20:24 | 55.48238 | 13.38714 | 1096 ft | 134 kts | 352° |
| 2026-04-29 20:24 | 55.49161 | 13.38520 | 909 ft | 133 kts | 352° |
| 2026-04-29 20:24 | 55.50075 | 13.38333 | 742 ft | 134 kts | 351° |
| 2026-04-29 20:24 | 55.51006 | 13.38147 | 550 ft | 135 kts | 352° |
| 2026-04-29 20:25 | 55.51942 | 13.37959 | 355 ft | 136 kts | 352° |
| 2026-04-29 20:25 | 55.52864 | 13.37779 | 240 ft | 125 kts | 353° |
| 2026-04-29 20:25 | 55.53566 | 13.37633 | 238 ft | 75 kts | 353° |
| 2026-04-29 20:25 | 55.53933 | 13.37558 | 241 ft | 41 kts | 353° |
| 2026-04-29 20:26 | 55.54177 | 13.37510 | 239 ft | 17 kts | 354° |
| 2026-04-29 20:26 | 55.54221 | 13.37396 | 241 ft | 14 kts | 265° |
| 2026-04-29 20:26 | 55.54210 | 13.37231 | 232 ft | 11 kts | 264° |
| 2026-04-29 20:26 | 55.54193 | 13.37104 | 233 ft | 11 kts | 248° |
| 2026-04-29 20:27 | 55.54176 | 13.36979 | 231 ft | 10 kts | 262° |
| 2026-04-29 20:27 | 55.54170 | 13.36897 | 231 ft | 10 kts | 264° |
| 2026-04-29 20:27 | 55.54149 | 13.36842 | 231 ft | 4 kts | 184° |
| 2026-04-29 20:27 | 55.54122 | 13.36846 | 234 ft | 3 kts | 174° |
| 2026-04-29 20:28 | 55.54106 | 13.36849 | 231 ft | 1 kts | 173° |
| 2026-04-29 20:28 | 55.54103 | 13.36850 | 231 ft | 0 kts | 173° |